Time;durP1;ratioP1;P1;durP2;ratioP2;P2;SDS_P1;SDS_P2;PMS_P1;PMS_P2;Temp;Humidity;BMP_temperature;BMP_pressure;BME280_temperature;BME280_humidity;BME280_pressure;Samples;Min_cycle;Max_cycle;Signal;HPM_P1;HPM_P2
2024/01/23 00:03:07;;;;;;;14.80;2.80;;;;;;;4.27;100.00;98862.77;107141;1281;62759;-62
2024/01/23 00:05:54;;;;;;;15.60;2.70;;;;;;;4.24;100.00;98866.11;107091;1281;74142;-62
2024/01/23 00:08:42;;;;;;;13.60;3.00;;;;;;;4.24;100.00;98879.83;107269;1281;66653;-62
2024/01/23 00:11:30;;;;;;;10.00;2.60;;;;;;;4.22;100.00;98882.08;107018;1281;72608;-62
2024/01/23 00:14:18;;;;;;;18.20;3.30;;;;;;;4.22;100.00;98886.98;107229;1281;59326;-62
2024/01/23 00:17:06;;;;;;;10.80;2.30;;;;;;;4.21;100.00;98895.30;107106;1281;59184;-62
2024/01/23 00:19:56;;;;;;;13.40;3.20;;;;;;;4.16;100.00;98896.89;107139;1281;73253;-62
2024/01/23 00:22:44;;;;;;;13.90;2.70;;;;;;;4.09;100.00;98894.02;107259;1279;67827;-64
2024/01/23 00:25:32;;;;;;;11.50;2.90;;;;;;;4.02;100.00;98893.78;107490;1279;72308;-63
2024/01/23 00:28:20;;;;;;;15.20;2.90;;;;;;;3.95;100.00;98896.61;107409;1280;59661;-62
2024/01/23 00:31:07;;;;;;;10.80;2.70;;;;;;;3.87;100.00;98896.76;106626;1280;1003005;-61
2024/01/23 00:33:55;;;;;;;12.50;2.70;;;;;;;3.79;100.00;98890.98;107306;1280;73038;-61
2024/01/23 00:36:44;;;;;;;14.10;3.20;;;;;;;3.71;100.00;98895.20;107332;1279;67009;-63
2024/01/23 00:39:37;;;;;;;12.60;2.70;;;;;;;3.65;100.00;98901.39;107224;1286;72963;-62
2024/01/23 00:42:26;;;;;;;19.00;2.90;;;;;;;3.61;100.00;98904.34;107384;1280;59563;-64
2024/01/23 00:45:14;;;;;;;15.70;3.00;;;;;;;3.60;100.00;98912.08;107451;1280;61100;-63
2024/01/23 00:48:02;;;;;;;13.40;2.90;;;;;;;3.63;100.00;98918.40;107287;1281;74069;-63
2024/01/23 00:50:49;;;;;;;8.80;2.20;;;;;;;3.65;100.00;98913.55;107312;1280;66983;-62
2024/01/23 00:53:38;;;;;;;12.70;3.00;;;;;;;3.68;100.00;98909.11;107444;1280;73740;-62
2024/01/23 00:56:25;;;;;;;10.80;2.10;;;;;;;3.69;100.00;98918.48;107437;1279;59572;-63
2024/01/23 00:59:13;;;;;;;12.00;2.50;;;;;;;3.68;100.00;98915.07;107475;1279;58790;-63
2024/01/23 01:02:03;;;;;;;13.20;2.70;;;;;;;3.67;100.00;98912.66;107458;1279;72888;-62
2024/01/23 01:04:50;;;;;;;12.00;3.00;;;;;;;3.66;100.00;98903.95;104282;1281;1002886;-61
2024/01/23 01:07:38;;;;;;;13.80;2.80;;;;;;;3.63;100.00;98902.23;107445;1280;72972;-62
2024/01/23 01:10:26;;;;;;;14.70;2.90;;;;;;;3.58;100.00;98904.50;107453;1280;57899;-63
2024/01/23 01:13:14;;;;;;;15.30;2.80;;;;;;;3.50;100.00;98898.56;107445;1280;60074;-62
2024/01/23 01:16:02;;;;;;;14.30;3.20;;;;;;;3.51;100.00;98905.89;107290;1280;73784;-61
2024/01/23 01:18:50;;;;;;;18.20;2.70;;;;;;;3.50;100.00;98902.60;107487;1279;67726;-61
2024/01/23 01:21:38;;;;;;;10.80;2.50;;;;;;;3.48;100.00;98907.84;106609;1280;1002747;-62
2024/01/23 01:24:26;;;;;;;14.80;2.80;;;;;;;3.45;100.00;98912.20;107133;1280;58851;-62
2024/01/23 01:27:14;;;;;;;12.30;3.20;;;;;;;3.43;100.00;98905.69;107303;1280;60012;-61
2024/01/23 01:30:04;;;;;;;10.10;2.30;;;;;;;3.40;100.00;98904.14;107275;1280;72026;-62
2024/01/23 01:32:52;;;;;;;13.00;2.80;;;;;;;3.36;100.00;98903.54;107331;1280;68013;-61
2024/01/23 01:35:41;;;;;;;11.60;2.60;;;;;;;3.32;100.00;98906.75;107338;1280;70891;-62
2024/01/23 01:38:29;;;;;;;12.10;2.70;;;;;;;3.27;100.00;98913.05;107276;1280;58800;-61
2024/01/23 01:41:17;;;;;;;14.50;2.90;;;;;;;3.23;100.00;98911.00;107313;1280;59202;-63
2024/01/23 01:44:05;;;;;;;10.30;2.20;;;;;;;3.21;100.00;98913.46;107298;1280;72783;-62
2024/01/23 01:46:54;;;;;;;14.00;2.70;;;;;;;3.21;100.00;98922.02;107344;1280;67651;-62
2024/01/23 01:49:42;;;;;;;17.10;3.30;;;;;;;3.25;100.00;98922.86;107106;1279;72735;-63
2024/01/23 01:52:32;;;;;;;12.70;2.10;;;;;;;3.28;100.00;98921.40;107284;1279;59550;-61
2024/01/23 01:55:21;;;;;;;9.60;2.30;;;;;;;3.32;100.00;98917.44;107136;1280;60323;-61
2024/01/23 01:58:11;;;;;;;9.20;1.90;;;;;;;3.34;100.00;98915.07;107139;1279;73272;-61
2024/01/23 02:01:02;;;;;;;7.70;2.30;;;;;;;3.33;100.00;98920.17;107148;1279;68672;-62
2024/01/23 02:03:50;;;;;;;11.20;2.50;;;;;;;3.32;100.00;98927.06;107331;1279;72529;-62
2024/01/23 02:06:38;;;;;;;12.20;2.50;;;;;;;3.30;100.00;98931.64;107258;1280;57579;-62
2024/01/23 02:09:26;;;;;;;11.20;2.50;;;;;;;3.27;100.00;98926.92;107364;1280;60138;-61
2024/01/23 02:12:14;;;;;;;12.40;2.50;;;;;;;3.21;100.00;98917.84;107331;1280;73984;-62
2024/01/23 02:15:02;;;;;;;10.20;2.30;;;;;;;3.23;100.00;98917.34;107166;1280;68634;-63
2024/01/23 02:17:50;;;;;;;10.20;2.90;;;;;;;3.22;100.00;98918.46;107328;1281;72705;-63
2024/01/23 02:20:38;;;;;;;12.40;2.90;;;;;;;3.23;100.00;98918.05;107301;1283;58460;-62
2024/01/23 02:23:30;;;;;;;12.10;2.50;;;;;;;3.23;100.00;98915.20;107302;1281;60132;-63
2024/01/23 02:26:18;;;;;;;13.50;2.90;;;;;;;3.26;100.00;98917.33;107144;1281;73642;-63
2024/01/23 02:29:06;;;;;;;9.70;2.50;;;;;;;3.28;100.00;98910.91;107292;1283;66559;-63
2024/01/23 02:31:54;;;;;;;14.20;3.00;;;;;;;3.27;100.00;98917.98;107294;1279;72811;-62
2024/01/23 02:34:44;;;;;;;12.10;2.30;;;;;;;3.26;100.00;98917.34;107317;1280;57565;-63
2024/01/23 02:37:31;;;;;;;11.00;2.70;;;;;;;3.25;100.00;98913.37;107329;1280;59513;-63
2024/01/23 02:40:19;;;;;;;10.40;2.60;;;;;;;3.22;100.00;98909.13;106597;1280;1002216;-62
2024/01/23 02:43:07;;;;;;;13.10;2.20;;;;;;;3.22;100.00;98907.59;107257;1280;66687;-62
2024/01/23 02:45:55;;;;;;;11.50;2.90;;;;;;;3.23;100.00;98909.25;107295;1280;72725;-62
2024/01/23 02:48:43;;;;;;;14.00;2.80;;;;;;;3.24;100.00;98910.45;107070;1280;58486;-63
2024/01/23 02:51:31;;;;;;;13.30;2.60;;;;;;;3.25;100.00;98916.86;107324;1285;60531;-63
2024/01/23 02:54:19;;;;;;;14.70;2.70;;;;;;;3.28;100.00;98920.67;107170;1280;72913;-61
2024/01/23 02:57:07;;;;;;;16.90;2.90;;;;;;;3.30;100.00;98926.54;107274;1280;66753;-62
2024/01/23 02:59:56;;;;;;;12.80;3.20;;;;;;;3.32;100.00;98928.69;107327;1280;72571;-61
2024/01/23 03:02:45;;;;;;;14.40;2.80;;;;;;;3.32;100.00;98921.83;107295;1280;57562;-62
2024/01/23 03:05:33;;;;;;;10.80;2.60;;;;;;;3.33;100.00;98930.04;107162;1280;60561;-63
2024/01/23 03:08:22;;;;;;;10.00;2.90;;;;;;;3.29;100.00;98928.30;107348;1280;72812;-63
2024/01/23 03:11:11;;;;;;;13.00;2.90;;;;;;;3.29;100.00;98932.89;107297;1280;67929;-62
2024/01/23 03:13:58;;;;;;;10.70;2.50;;;;;;;3.28;100.00;98933.85;107245;1279;71757;-61
2024/01/23 03:16:46;;;;;;;15.00;2.60;;;;;;;3.23;100.00;98930.63;107306;1280;60030;-62
2024/01/23 03:19:34;;;;;;;9.70;2.50;;;;;;;3.22;100.00;98934.39;107300;1280;59210;-61
2024/01/23 03:22:22;;;;;;;11.50;2.50;;;;;;;3.23;100.00;98934.86;107325;1280;72704;-62
2024/01/23 03:25:10;;;;;;;18.10;2.80;;;;;;;3.23;100.00;98934.16;107342;1280;68133;-61
2024/01/23 03:27:58;;;;;;;12.70;2.80;;;;;;;3.23;100.00;98932.58;107266;1280;71315;-64
2024/01/23 03:30:46;;;;;;;17.70;3.10;;;;;;;3.24;100.00;98942.02;107318;1280;57346;-63
2024/01/23 03:33:34;;;;;;;13.50;3.40;;;;;;;3.23;100.00;98941.21;107350;1280;58769;-63
2024/01/23 03:36:22;;;;;;;12.00;2.70;;;;;;;3.22;100.00;98932.12;107351;1279;72205;-62
2024/01/23 03:39:10;;;;;;;18.00;3.30;;;;;;;3.23;100.00;98931.20;107337;1280;68956;-62
2024/01/23 03:41:58;;;;;;;11.30;2.70;;;;;;;3.17;100.00;98928.92;107211;1282;71253;-63
2024/01/23 03:44:46;;;;;;;11.30;2.70;;;;;;;3.20;100.00;98937.90;107322;1280;58948;-62
2024/01/23 03:47:34;;;;;;;9.20;2.30;;;;;;;3.18;100.00;98938.52;107277;1279;60202;-60
2024/01/23 03:50:22;;;;;;;14.20;2.90;;;;;;;3.17;100.00;98943.19;107375;1280;72958;-61
2024/01/23 03:53:09;;;;;;;11.30;2.40;;;;;;;3.13;100.00;98945.69;107360;1280;68068;-62
2024/01/23 03:55:58;;;;;;;9.10;2.40;;;;;;;3.11;100.00;98951.45;107347;1280;71472;-61
2024/01/23 03:58:46;;;;;;;13.20;2.70;;;;;;;3.09;100.00;98964.02;107324;1280;58859;-61
2024/01/23 04:01:34;;;;;;;9.80;2.40;;;;;;;3.10;100.00;98970.63;107262;1280;58834;-61
2024/01/23 04:04:22;;;;;;;14.60;3.10;;;;;;;3.08;100.00;98972.27;107076;1280;71844;-62
2024/01/23 04:07:10;;;;;;;9.70;2.80;;;;;;;3.09;100.00;98977.15;107318;1283;67940;-62
2024/01/23 04:09:58;;;;;;;16.50;2.90;;;;;;;3.11;100.00;98976.31;107236;1280;72541;-61
2024/01/23 04:12:46;;;;;;;8.20;2.50;;;;;;;3.10;100.00;98985.13;107318;1280;58657;-63
2024/01/23 04:15:33;;;;;;;13.60;2.60;;;;;;;3.08;100.00;98988.76;107320;1280;60534;-62
2024/01/23 04:18:22;;;;;;;12.40;3.30;;;;;;;3.06;100.00;99000.83;107350;1280;71835;-62
2024/01/23 04:21:13;;;;;;;13.40;2.40;;;;;;;3.03;100.00;99011.17;107221;1280;66771;-62
2024/01/23 04:24:02;;;;;;;14.50;3.00;;;;;;;3.01;100.00;99013.38;107316;1280;73748;-63
2024/01/23 04:26:50;;;;;;;16.30;3.20;;;;;;;3.02;100.00;99016.80;107152;1280;59087;-62
2024/01/23 04:29:38;;;;;;;9.40;2.90;;;;;;;3.04;100.00;99009.52;107193;1280;61421;-61
2024/01/23 04:32:26;;;;;;;14.20;2.70;;;;;;;3.05;100.00;99021.05;107368;1279;71953;-61
2024/01/23 04:35:13;;;;;;;12.80;2.90;;;;;;;3.06;100.00;99025.71;107333;1280;66989;-62
2024/01/23 04:38:01;;;;;;;10.30;2.60;;;;;;;3.04;100.00;99027.39;107318;1280;72754;-62
2024/01/23 04:40:49;;;;;;;8.90;2.10;;;;;;;3.00;100.00;99021.17;107397;1279;58780;-62
2024/01/23 04:43:37;;;;;;;13.80;3.10;;;;;;;2.99;100.00;99033.30;107364;1279;60308;-62
2024/01/23 04:46:25;;;;;;;11.70;2.60;;;;;;;2.96;100.00;99039.29;106981;1279;71628;-60
2024/01/23 04:49:13;;;;;;;15.60;2.80;;;;;;;2.89;100.00;99039.02;107038;1280;68209;-60
2024/01/23 04:52:01;;;;;;;14.30;3.10;;;;;;;2.88;100.00;99041.14;107334;1279;73470;-61
2024/01/23 04:54:49;;;;;;;13.50;2.90;;;;;;;2.84;100.00;99040.24;107305;1279;58870;-62
2024/01/23 04:57:36;;;;;;;11.70;2.70;;;;;;;2.81;100.00;99045.67;107249;1280;60097;-62
2024/01/23 05:00:25;;;;;;;11.70;2.40;;;;;;;2.76;100.00;99041.77;107065;1280;73089;-60
2024/01/23 05:03:13;;;;;;;15.00;2.80;;;;;;;2.73;100.00;99040.38;107313;1279;67745;-63
2024/01/23 05:06:00;;;;;;;15.10;2.90;;;;;;;2.69;100.00;99049.69;107062;1280;73573;-63
2024/01/23 05:08:49;;;;;;;15.10;3.10;;;;;;;2.66;100.00;99049.53;107204;1280;58693;-65
2024/01/23 05:11:36;;;;;;;11.90;2.40;;;;;;;2.64;100.00;99054.56;107133;1280;60014;-62
2024/01/23 05:14:25;;;;;;;10.30;2.50;;;;;;;2.62;100.00;99058.55;107299;1280;73111;-66
2024/01/23 05:17:13;;;;;;;15.20;3.20;;;;;;;2.60;100.00;99065.14;107062;1280;67605;-63
2024/01/23 05:20:04;;;;;;;7.90;2.30;;;;;;;2.58;100.00;99070.92;107317;1279;73894;-63
2024/01/23 05:22:52;;;;;;;13.80;3.00;;;;;;;2.56;100.00;99070.63;107229;1280;57668;-64
2024/01/23 05:25:42;;;;;;;15.00;3.10;;;;;;;2.58;100.00;99071.41;107320;1280;61229;-65
2024/01/23 05:28:30;;;;;;;17.00;3.50;;;;;;;2.57;100.00;99054.98;107193;1279;73007;-64
2024/01/23 05:31:18;;;;;;;12.80;2.80;;;;;;;2.64;100.00;99056.81;107030;1279;68726;-61
2024/01/23 05:34:06;;;;;;;14.10;3.00;;;;;;;2.66;100.00;99062.48;107001;1279;72386;-65
2024/01/23 05:36:53;;;;;;;14.10;2.70;;;;;;;2.67;100.00;99065.43;107229;1280;58800;-63
2024/01/23 05:39:41;;;;;;;12.70;3.10;;;;;;;2.64;100.00;99071.71;107311;1280;58772;-61
2024/01/23 05:42:29;;;;;;;14.40;3.80;;;;;;;2.62;100.00;99076.92;107313;1279;71525;-65
2024/01/23 05:45:17;;;;;;;16.40;3.90;;;;;;;2.61;100.00;99083.48;107298;1281;68721;-62
2024/01/23 05:48:06;;;;;;;17.60;4.20;;;;;;;2.63;100.00;99091.95;107280;1280;73420;-63
2024/01/23 05:50:54;;;;;;;18.80;3.60;;;;;;;2.64;100.00;99101.64;107316;1280;57777;-62
2024/01/23 05:53:42;;;;;;;13.50;3.30;;;;;;;2.68;100.00;99105.45;107052;1280;60038;-63
2024/01/23 05:56:30;;;;;;;11.10;2.70;;;;;;;2.72;100.00;99097.86;107292;1280;73781;-62
2024/01/23 05:59:18;;;;;;;16.40;3.60;;;;;;;2.74;100.00;99090.56;107311;1279;67984;-63
2024/01/23 06:02:07;;;;;;;15.10;3.50;;;;;;;2.75;100.00;99085.97;107212;1280;73057;-63
2024/01/23 06:04:55;;;;;;;16.70;3.70;;;;;;;2.71;100.00;99094.05;107278;1279;57686;-66
2024/01/23 06:07:48;;;;;;;13.90;3.50;;;;;;;2.69;100.00;99105.77;107027;1279;61067;-62
2024/01/23 06:10:36;;;;;;;16.50;3.70;;;;;;;2.67;100.00;99113.56;107335;1280;72859;-64
2024/01/23 06:13:24;;;;;;;15.30;4.20;;;;;;;2.66;100.00;99119.42;107295;1279;68085;-63
2024/01/23 06:16:12;;;;;;;15.40;3.80;;;;;;;2.67;100.00;99128.11;107320;1279;72380;-63
2024/01/23 06:19:00;;;;;;;16.50;4.50;;;;;;;2.67;100.00;99129.70;107147;1280;57530;-62
2024/01/23 06:21:48;;;;;;;16.60;3.70;;;;;;;2.69;100.00;99133.09;107334;1280;61217;-64
2024/01/23 06:24:36;;;;;;;17.70;3.80;;;;;;;2.69;100.00;99127.79;107325;1280;72845;-64
2024/01/23 06:27:24;;;;;;;18.70;3.80;;;;;;;2.74;100.00;99131.24;107227;1282;66966;-62
2024/01/23 06:30:13;;;;;;;16.00;4.00;;;;;;;2.74;100.00;99130.50;107317;1279;71328;-63
2024/01/23 06:33:03;;;;;;;13.90;3.90;;;;;;;2.72;100.00;99129.21;107402;1279;57362;-64
2024/01/23 06:35:51;;;;;;;16.70;3.80;;;;;;;2.67;100.00;99126.21;107216;1279;59149;-63
2024/01/23 06:38:39;;;;;;;13.60;4.00;;;;;;;2.59;100.00;99119.50;107324;1279;72883;-64
2024/01/23 06:41:27;;;;;;;17.70;4.10;;;;;;;2.57;100.00;99120.69;107028;1279;67701;-62
2024/01/23 06:44:18;;;;;;;14.50;4.40;;;;;;;2.52;100.00;99127.25;107246;1279;72824;-64
2024/01/23 06:47:06;;;;;;;18.60;4.40;;;;;;;2.48;100.00;99127.82;107290;1280;57381;-65
2024/01/23 06:49:54;;;;;;;16.50;4.00;;;;;;;2.46;100.00;99145.14;107392;1279;60268;-63
2024/01/23 06:52:42;;;;;;;13.00;3.60;;;;;;;2.43;100.00;99144.59;107349;1279;74042;-63
2024/01/23 06:55:29;;;;;;;10.20;3.10;;;;;;;2.41;100.00;99139.98;107306;1279;68602;-65
2024/01/23 06:58:17;;;;;;;17.70;3.40;;;;;;;2.42;100.00;99144.46;107119;1279;73428;-64
2024/01/23 07:01:05;;;;;;;11.00;3.10;;;;;;;2.45;100.00;99150.96;107204;1279;57300;-63
2024/01/23 07:03:53;;;;;;;16.00;3.50;;;;;;;2.48;100.00;99150.30;107214;1279;60129;-65
2024/01/23 07:06:41;;;;;;;11.10;3.50;;;;;;;2.49;100.00;99157.38;107382;1279;73039;-62
2024/01/23 07:09:30;;;;;;;15.60;3.80;;;;;;;2.54;100.00;99160.05;107390;1279;66904;-62
2024/01/23 07:12:17;;;;;;;9.70;2.60;;;;;;;2.59;100.00;99162.05;107371;1279;73731;-65
2024/01/23 07:15:06;;;;;;;11.30;3.40;;;;;;;2.63;100.00;99155.30;105101;1279;1002471;-65
2024/01/23 07:17:54;;;;;;;11.50;3.30;;;;;;;2.68;100.00;99159.63;107120;1279;58835;-67
2024/01/23 07:20:42;;;;;;;15.50;3.20;;;;;;;2.73;100.00;99163.33;107364;1279;71570;-63
2024/01/23 07:23:33;;;;;;;14.90;3.50;;;;;;;2.75;100.00;99161.65;107270;1279;67590;-64
2024/01/23 07:26:21;;;;;;;14.60;3.80;;;;;;;2.75;100.00;99155.89;107102;1279;70917;-65
2024/01/23 07:29:09;;;;;;;9.80;3.00;;;;;;;2.73;100.00;99162.47;107043;1280;58678;-65
2024/01/23 07:31:57;;;;;;;14.60;3.80;;;;;;;2.75;100.00;99169.84;107084;1279;58767;-63
2024/01/23 07:34:45;;;;;;;15.20;3.30;;;;;;;2.81;100.00;99183.70;107140;1279;72839;-67
2024/01/23 07:37:34;;;;;;;12.00;3.60;;;;;;;2.92;100.00;99196.20;107138;1279;66389;-62
2024/01/23 07:40:22;;;;;;;13.60;3.70;;;;;;;2.94;100.00;99199.05;107246;1279;72662;-64
2024/01/23 07:43:10;;;;;;;16.30;3.90;;;;;;;2.97;100.00;99198.33;107110;1280;57451;-62
2024/01/23 07:45:58;;;;;;;12.50;3.60;;;;;;;3.02;100.00;99206.65;107111;1279;60380;-62
2024/01/23 07:48:46;;;;;;;12.60;3.50;;;;;;;3.07;100.00;99214.42;107105;1279;71078;-63
2024/01/23 07:51:46;;;;;;;12.00;3.50;;;;;;;3.17;100.00;99226.46;107306;1280;66791;-64
2024/01/23 07:54:34;;;;;;;12.70;3.40;;;;;;;3.30;100.00;99217.94;107088;1279;73476;-65
2024/01/23 07:57:22;;;;;;;12.80;3.20;;;;;;;3.41;100.00;99217.60;107282;1280;57523;-63
2024/01/23 08:00:11;;;;;;;16.20;3.80;;;;;;;3.53;100.00;99215.45;107285;1280;58735;-61
2024/01/23 08:02:59;;;;;;;14.70;3.40;;;;;;;3.68;100.00;99212.96;107177;1280;73071;-63
2024/01/23 08:05:47;;;;;;;14.20;4.20;;;;;;;3.86;100.00;99212.20;107451;1279;66628;-63
2024/01/23 08:08:34;;;;;;;12.70;4.50;;;;;;;3.99;100.00;99213.97;107398;1280;72803;-64
2024/01/23 08:11:22;;;;;;;15.00;3.70;;;;;;;4.06;100.00;99209.33;107064;1279;58924;-64
2024/01/23 08:14:14;;;;;;;12.90;3.20;;;;;;;4.18;100.00;99216.45;107161;1279;60359;-62
2024/01/23 08:17:02;;;;;;;14.20;3.70;;;;;;;4.28;100.00;99220.95;107119;1280;73760;-64
2024/01/23 08:19:50;;;;;;;12.90;3.80;;;;;;;4.35;100.00;99225.19;107220;1280;66927;-63
2024/01/23 08:22:38;;;;;;;15.80;3.80;;;;;;;4.47;100.00;99227.92;106995;1281;72445;-65
2024/01/23 08:25:26;;;;;;;14.90;3.60;;;;;;;4.42;100.00;99224.75;107098;1281;59882;-63
2024/01/23 08:28:14;;;;;;;13.30;3.90;;;;;;;4.47;100.00;99223.20;107140;1281;57815;-63
2024/01/23 08:31:03;;;;;;;13.90;3.70;;;;;;;4.63;100.00;99223.34;107188;1281;74028;-64
2024/01/23 08:33:52;;;;;;;11.60;3.40;;;;;;;4.95;99.10;99222.63;107169;1281;66488;-64
2024/01/23 08:36:40;;;;;;;11.70;3.60;;;;;;;5.48;96.60;99217.38;106192;1281;1002924;-63
2024/01/23 08:39:28;;;;;;;12.90;3.60;;;;;;;6.48;91.31;99219.11;107056;1281;58032;-64
2024/01/23 08:42:16;;;;;;;14.90;4.30;;;;;;;7.21;87.55;99221.69;107182;1281;60140;-65
2024/01/23 08:45:05;;;;;;;13.60;4.00;;;;;;;8.16;82.69;99212.50;107271;1280;73024;-62
2024/01/23 08:47:53;;;;;;;16.50;3.70;;;;;;;7.65;81.26;99214.23;107158;1281;67747;-65
2024/01/23 08:50:43;;;;;;;13.70;3.30;;;;;;;6.96;83.33;99216.23;107177;1281;72435;-65
2024/01/23 08:53:31;;;;;;;12.00;3.60;;;;;;;6.65;85.59;99207.77;107002;1281;57531;-66
2024/01/23 08:56:23;;;;;;;14.90;4.00;;;;;;;6.87;84.91;99213.71;107157;1280;59430;-64
2024/01/23 08:59:11;;;;;;;13.30;3.70;;;;;;;7.53;82.83;99223.85;107214;1280;71827;-64
2024/01/23 09:02:00;;;;;;;13.20;3.30;;;;;;;7.27;82.29;99224.80;107365;1279;66375;-64
2024/01/23 09:04:48;;;;;;;13.60;3.40;;;;;;;7.02;83.64;99223.02;107226;1279;72694;-64
2024/01/23 09:07:36;;;;;;;14.10;3.40;;;;;;;7.75;81.94;99223.68;107299;1280;57456;-64
2024/01/23 09:10:24;;;;;;;12.90;3.30;;;;;;;8.70;78.56;99217.05;107288;1279;60230;-64
2024/01/23 09:13:12;;;;;;;12.30;3.70;;;;;;;9.77;72.92;99210.86;107232;1279;73189;-66
2024/01/23 09:16:01;;;;;;;15.60;3.80;;;;;;;10.77;67.93;99217.02;107284;1279;67674;-65
2024/01/23 09:18:48;;;;;;;13.70;3.80;;;;;;;11.09;67.16;99212.98;107314;1279;72889;-63
2024/01/23 09:21:37;;;;;;;12.90;3.90;;;;;;;11.86;62.92;99206.10;107259;1280;59706;-64
2024/01/23 09:24:25;;;;;;;15.80;3.80;;;;;;;12.23;60.62;99197.59;107137;1280;60375;-63
2024/01/23 09:27:13;;;;;;;13.40;3.80;;;;;;;12.76;59.55;99194.95;107152;1279;71232;-64
2024/01/23 09:30:02;;;;;;;12.30;3.70;;;;;;;13.36;56.72;99211.42;107365;1280;67049;-65
2024/01/23 09:32:50;;;;;;;11.90;3.10;;;;;;;12.59;55.07;99211.61;106892;1279;232015;-62
2024/01/23 09:35:38;;;;;;;14.80;3.80;;;;;;;11.26;57.95;99217.11;107296;1280;57405;-65
2024/01/23 09:38:26;;;;;;;12.10;3.10;;;;;;;10.12;61.53;99204.05;107307;1279;59987;-67
2024/01/23 09:41:15;;;;;;;11.70;3.60;;;;;;;9.50;64.57;99205.91;107262;1280;73150;-63
2024/01/23 09:44:04;;;;;;;15.30;4.00;;;;;;;9.11;66.21;99208.40;107368;1279;66713;-65
2024/01/23 09:46:55;;;;;;;12.10;3.60;;;;;;;9.30;66.47;99213.36;107325;1280;72558;-64
2024/01/23 09:49:43;;;;;;;13.10;3.90;;;;;;;9.44;65.72;99219.91;107109;1279;57711;-67
2024/01/23 09:52:34;;;;;;;12.40;3.10;;;;;;;8.96;66.87;99223.26;107061;1280;60105;-64
2024/01/23 09:55:21;;;;;;;12.70;4.90;;;;;;;8.51;68.66;99225.41;107013;1279;73260;-64
2024/01/23 09:58:13;;;;;;;14.60;3.80;;;;;;;8.12;70.05;99228.73;107146;1280;68103;-65
2024/01/23 10:01:01;;;;;;;13.00;3.20;;;;;;;8.59;70.34;99228.98;107172;1279;72414;-65
2024/01/23 10:03:50;;;;;;;10.60;3.00;;;;;;;8.90;67.92;99222.02;107241;1279;57380;-64
2024/01/23 10:06:38;;;;;;;12.60;3.10;;;;;;;8.43;68.77;99216.16;107155;1280;59598;-66
2024/01/23 10:09:26;;;;;;;14.80;3.40;;;;;;;8.03;70.11;99211.45;106984;1279;71553;-64
2024/01/23 10:12:14;;;;;;;13.60;3.60;;;;;;;7.83;71.25;99214.61;107243;1279;68062;-64
2024/01/23 10:15:02;;;;;;;13.60;3.40;;;;;;;7.52;72.22;99220.38;107275;1280;73470;-65
2024/01/23 10:17:53;;;;;;;11.60;3.30;;;;;;;7.57;73.02;99221.45;107141;1279;57355;-64
2024/01/23 10:20:41;;;;;;;9.70;2.60;;;;;;;7.26;73.84;99215.88;107101;1279;58769;-67
2024/01/23 10:23:29;;;;;;;13.50;3.70;;;;;;;7.69;73.27;99217.84;107247;1279;72989;-62
2024/01/23 10:26:20;;;;;;;14.20;3.20;;;;;;;8.54;70.47;99207.52;107253;1279;67728;-62
2024/01/23 10:29:08;;;;;;;12.70;3.00;;;;;;;9.21;67.29;99209.28;107056;1279;71365;-63
2024/01/23 10:31:56;;;;;;;11.70;2.70;;;;;;;8.98;67.35;99199.71;107097;1279;58079;-64
2024/01/23 10:34:44;;;;;;;14.20;3.10;;;;;;;9.16;66.79;99191.70;107344;1279;59182;-64
2024/01/23 10:37:33;;;;;;;10.20;2.80;;;;;;;9.49;66.04;99196.29;107308;1279;73048;-63
2024/01/23 10:40:23;;;;;;;12.30;3.30;;;;;;;10.11;65.42;99192.11;107256;1280;67083;-64
2024/01/23 10:43:12;;;;;;;10.90;2.80;;;;;;;11.66;59.37;99178.89;107302;1279;72510;-64
2024/01/23 10:46:02;;;;;;;12.10;3.40;;;;;;;12.34;56.15;99168.58;107307;1279;57428;-64
2024/01/23 10:48:50;;;;;;;12.20;3.60;;;;;;;13.31;53.21;99171.44;107448;1279;60072;-63
2024/01/23 10:51:41;;;;;;;11.00;3.00;;;;;;;13.68;51.02;99166.58;107451;1279;71772;-63
2024/01/23 10:54:31;;;;;;;11.10;3.20;;;;;;;14.17;49.08;99172.64;107269;1279;67596;-63
2024/01/23 10:57:24;;;;;;;12.00;3.30;;;;;;;14.43;48.30;99173.99;107177;1279;72463;-63
2024/01/23 11:00:18;;;;;;;12.90;3.50;;;;;;;14.80;47.06;99186.81;107226;1279;57841;-65
2024/01/23 11:03:07;;;;;;;11.70;3.40;;;;;;;14.75;46.59;99194.15;107203;1280;60743;-65
2024/01/23 11:06:04;;;;;;;13.10;3.80;;;;;;;14.82;47.15;99198.31;107303;1279;73787;-64
2024/01/23 11:09:22;;;;;;;13.50;3.40;;;;;;;14.17;47.27;99192.64;107269;1280;67784;-66
2024/01/23 11:12:41;;;;;;;13.30;3.00;;;;;;;14.17;47.92;99186.23;107239;1280;72839;-64
2024/01/23 11:15:29;;;;;;;9.50;2.60;;;;;;;13.23;48.95;99191.79;107264;1279;58012;-64
2024/01/23 11:18:28;;;;;;;10.90;3.30;;;;;;;12.34;51.65;99198.41;107200;1280;59110;-62
2024/01/23 11:21:21;;;;;;;11.70;3.30;;;;;;;12.75;51.88;99203.61;107317;1280;73098;-63
2024/01/23 11:24:09;;;;;;;12.50;2.80;;;;;;;12.58;51.63;99208.49;107213;1280;66697;-65
2024/01/23 11:26:57;;;;;;;9.90;2.60;;;;;;;12.20;52.21;99201.25;107115;1279;72639;-64
2024/01/23 11:29:48;;;;;;;10.90;2.60;;;;;;;11.37;54.16;99203.48;107413;1280;57795;-66
2024/01/23 11:32:36;;;;;;;9.60;2.40;;;;;;;10.25;57.47;99215.63;107397;1280;60225;-62
2024/01/23 11:35:23;;;;;;;11.30;2.70;;;;;;;9.02;61.65;99219.03;107308;1279;71642;-63
2024/01/23 11:38:14;;;;;;;11.60;2.60;;;;;;;8.05;65.67;99219.08;107431;1279;67644;-63
2024/01/23 11:41:12;;;;;;;10.60;2.60;;;;;;;7.31;69.04;99214.95;107120;1280;72640;-64
2024/01/23 11:44:13;;;;;;;10.10;2.90;;;;;;;6.77;71.84;99222.38;107270;1280;57697;-63
2024/01/23 11:47:03;;;;;;;9.70;2.40;;;;;;;6.27;74.76;99234.54;107359;1279;59043;-65
2024/01/23 11:49:55;;;;;;;11.80;2.30;;;;;;;5.87;77.24;99222.98;107432;1280;74240;-63
2024/01/23 11:52:49;;;;;;;11.70;2.40;;;;;;;5.70;78.49;99225.55;107463;1280;68015;-63
2024/01/23 11:55:38;;;;;;;11.60;2.90;;;;;;;5.58;80.32;99225.50;107256;1280;72241;-64
2024/01/23 11:58:26;;;;;;;10.50;2.50;;;;;;;5.48;81.95;99227.42;107431;1279;57211;-64
2024/01/23 12:01:15;;;;;;;12.10;2.50;;;;;;;5.53;83.15;99228.02;107347;1279;59998;-64
2024/01/23 12:04:03;;;;;;;10.70;2.70;;;;;;;6.06;81.31;99239.21;107412;1279;73620;-63
2024/01/23 12:06:50;;;;;;;8.70;2.70;;;;;;;6.15;79.99;99240.89;107408;1279;67677;-63
2024/01/23 12:09:38;;;;;;;10.00;3.10;;;;;;;5.99;80.10;99240.59;107083;1280;72593;-63
2024/01/23 12:12:26;;;;;;;12.50;2.70;;;;;;;5.80;81.01;99244.06;107212;1279;57698;-62
2024/01/23 12:15:14;;;;;;;12.50;3.20;;;;;;;5.64;81.91;99252.89;107474;1279;59257;-63
2024/01/23 12:18:03;;;;;;;10.90;2.90;;;;;;;5.51;83.07;99258.94;107286;1279;72933;-64
2024/01/23 12:20:56;;;;;;;11.20;2.80;;;;;;;5.41;84.01;99253.44;107246;1280;65592;-63
2024/01/23 12:23:45;;;;;;;10.10;2.30;;;;;;;5.25;85.19;99257.90;107226;1280;71424;-64
2024/01/23 12:26:34;;;;;;;10.70;2.80;;;;;;;5.12;86.18;99258.41;105740;1280;1002769;-66
2024/01/23 12:29:22;;;;;;;9.40;2.80;;;;;;;4.96;88.23;99261.98;107287;1284;60085;-63
2024/01/23 12:32:11;;;;;;;8.70;3.30;;;;;;;5.01;89.05;99274.98;107039;1280;73880;-64
2024/01/23 12:34:59;;;;;;;7.60;2.30;;;;;;;5.06;88.93;99270.77;107269;1280;67927;-65
2024/01/23 12:37:47;;;;;;;9.60;2.90;;;;;;;4.95;90.19;99256.55;107144;1279;72807;-63
2024/01/23 12:40:35;;;;;;;7.90;1.90;;;;;;;4.88;91.38;99256.65;107183;1280;57325;-63
2024/01/23 12:43:24;;;;;;;9.90;2.40;;;;;;;4.78;93.28;99265.29;107260;1280;58917;-61
2024/01/23 12:46:17;;;;;;;10.60;2.70;;;;;;;4.69;94.34;99266.52;107033;1279;74136;-62
2024/01/23 12:49:07;;;;;;;7.00;1.80;;;;;;;4.49;96.92;99256.94;107254;1280;69506;-63
2024/01/23 12:51:56;;;;;;;7.70;2.30;;;;;;;4.30;99.45;99269.62;107138;1280;73144;-65
2024/01/23 12:54:45;;;;;;;5.60;1.70;;;;;;;4.18;100.00;99272.81;107160;1280;58453;-66
2024/01/23 12:57:33;;;;;;;8.50;2.00;;;;;;;4.06;100.00;99272.14;107315;1280;59067;-62
2024/01/23 13:00:22;;;;;;;8.80;2.40;;;;;;;3.98;100.00;99280.41;107301;1280;72794;-62